sensor_id;sensor_type;location;lat;lon;timestamp;P1;durP1;ratioP1;P2;durP2;ratioP2
15500;SDS011;7852;52.228;5.990;2023-03-23T00:04:23;5.5;;;2.8;;
15500;SDS011;7852;52.228;5.990;2023-03-23T00:05:23;4.4;;;2.6;;
15500;SDS011;7852;52.228;5.990;2023-03-23T00:06:23;3.2;;;2.5;;
15500;SDS011;7852;52.228;5.990;2023-03-23T00:07:23;2.9;;;2.6;;
15500;SDS011;7852;52.228;5.990;2023-03-23T00:08:23;4.1;;;2.7;;
15500;SDS011;7852;52.228;5.990;2023-03-23T00:09:23;3.4;;;2.4;;
15500;SDS011;7852;52.228;5.990;2023-03-23T00:10:23;4.8;;;2.9;;
15500;SDS011;7852;52.228;5.990;2023-03-23T00:11:24;3.2;;;2.4;;
15500;SDS011;7852;52.228;5.990;2023-03-23T00:12:24;3;;;2.3;;
15500;SDS011;7852;52.228;5.990;2023-03-23T00:13:23;3.1;;;2.5;;
15500;SDS011;7852;52.228;5.990;2023-03-23T00:15:23;2.8;;;2.2;;
15500;SDS011;7852;52.228;5.990;2023-03-23T00:16:24;2.5;;;2.2;;
15500;SDS011;7852;52.228;5.990;2023-03-23T00:17:23;3.4;;;2.4;;
15500;SDS011;7852;52.228;5.990;2023-03-23T00:18:23;2.6;;;2.1;;
15500;SDS011;7852;52.228;5.990;2023-03-23T00:19:23;3.8;;;2;;
15500;SDS011;7852;52.228;5.990;2023-03-23T00:20:23;3.9;;;2;;
15500;SDS011;7852;52.228;5.990;2023-03-23T00:21:23;3.1;;;2.2;;
15500;SDS011;7852;52.228;5.990;2023-03-23T00:23:24;5.5;;;2.5;;
15500;SDS011;7852;52.228;5.990;2023-03-23T00:24:23;6;;;3.2;;
15500;SDS011;7852;52.228;5.990;2023-03-23T00:25:23;3.3;;;2.8;;
15500;SDS011;7852;52.228;5.990;2023-03-23T00:26:23;4;;;2.9;;
15500;SDS011;7852;52.228;5.990;2023-03-23T00:27:23;2.1;;;1.9;;
15500;SDS011;7852;52.228;5.990;2023-03-23T00:28:23;2.5;;;1.9;;
15500;SDS011;7852;52.228;5.990;2023-03-23T00:29:23;5.2;;;2.1;;
15500;SDS011;7852;52.228;5.990;2023-03-23T00:30:23;3.5;;;2.3;;
15500;SDS011;7852;52.228;5.990;2023-03-23T00:31:23;3.9;;;2.4;;
15500;SDS011;7852;52.228;5.990;2023-03-23T00:32:23;2.5;;;2.3;;
15500;SDS011;7852;52.228;5.990;2023-03-23T00:33:23;7.1;;;2.8;;
15500;SDS011;7852;52.228;5.990;2023-03-23T00:34:23;3.7;;;2.4;;
15500;SDS011;7852;52.228;5.990;2023-03-23T00:35:23;3.2;;;2.6;;
15500;SDS011;7852;52.228;5.990;2023-03-23T00:36:23;2;;;1.8;;
15500;SDS011;7852;52.228;5.990;2023-03-23T00:37:23;4.2;;;2.4;;
15500;SDS011;7852;52.228;5.990;2023-03-23T00:38:23;2.4;;;2.2;;
15500;SDS011;7852;52.228;5.990;2023-03-23T00:39:23;4.3;;;2.3;;
15500;SDS011;7852;52.228;5.990;2023-03-23T00:40:23;4.2;;;2.1;;
15500;SDS011;7852;52.228;5.990;2023-03-23T00:42:23;4.8;;;3;;
15500;SDS011;7852;52.228;5.990;2023-03-23T00:45:23;3.4;;;2.6;;
15500;SDS011;7852;52.228;5.990;2023-03-23T00:46:23;4;;;2.7;;
15500;SDS011;7852;52.228;5.990;2023-03-23T00:47:23;4;;;2.8;;
15500;SDS011;7852;52.228;5.990;2023-03-23T00:48:23;3.2;;;2.2;;
15500;SDS011;7852;52.228;5.990;2023-03-23T00:49:24;2.9;;;2;;
15500;SDS011;7852;52.228;5.990;2023-03-23T00:50:23;2.8;;;2;;
15500;SDS011;7852;52.228;5.990;2023-03-23T00:51:23;3.1;;;2.1;;
15500;SDS011;7852;52.228;5.990;2023-03-23T00:52:23;4.8;;;2.4;;
15500;SDS011;7852;52.228;5.990;2023-03-23T00:53:23;7.8;;;3;;
15500;SDS011;7852;52.228;5.990;2023-03-23T00:54:23;4;;;2.8;;
15500;SDS011;7852;52.228;5.990;2023-03-23T00:55:23;4.6;;;2.5;;
15500;SDS011;7852;52.228;5.990;2023-03-23T00:56:23;3.5;;;2.4;;
15500;SDS011;7852;52.228;5.990;2023-03-23T00:57:24;3.2;;;2.4;;
15500;SDS011;7852;52.228;5.990;2023-03-23T00:58:23;3.9;;;1.9;;
15500;SDS011;7852;52.228;5.990;2023-03-23T00:59:23;3.8;;;2.3;;
15500;SDS011;7852;52.228;5.990;2023-03-23T01:00:23;3.9;;;2.3;;
15500;SDS011;7852;52.228;5.990;2023-03-23T01:01:23;3.1;;;2.3;;
15500;SDS011;7852;52.228;5.990;2023-03-23T01:02:23;4.9;;;2.3;;
15500;SDS011;7852;52.228;5.990;2023-03-23T01:03:23;5.4;;;2.7;;
15500;SDS011;7852;52.228;5.990;2023-03-23T01:04:23;3.4;;;2.3;;
15500;SDS011;7852;52.228;5.990;2023-03-23T01:05:23;3.9;;;2.6;;
15500;SDS011;7852;52.228;5.990;2023-03-23T01:06:23;4.1;;;2.4;;
15500;SDS011;7852;52.228;5.990;2023-03-23T01:07:23;2.5;;;2.1;;
15500;SDS011;7852;52.228;5.990;2023-03-23T01:08:23;2.7;;;2;;
15500;SDS011;7852;52.228;5.990;2023-03-23T01:09:23;2.7;;;2;;
15500;SDS011;7852;52.228;5.990;2023-03-23T01:10:23;2.3;;;1.9;;
15500;SDS011;7852;52.228;5.990;2023-03-23T01:11:23;3.4;;;1.6;;
15500;SDS011;7852;52.228;5.990;2023-03-23T01:12:23;2.1;;;1.9;;
15500;SDS011;7852;52.228;5.990;2023-03-23T01:13:23;2.8;;;1.5;;
15500;SDS011;7852;52.228;5.990;2023-03-23T01:14:23;2.7;;;2.2;;
15500;SDS011;7852;52.228;5.990;2023-03-23T01:15:23;5.7;;;2.3;;
15500;SDS011;7852;52.228;5.990;2023-03-23T01:16:23;3.1;;;2.1;;
15500;SDS011;7852;52.228;5.990;2023-03-23T01:17:23;2.8;;;1.1;;
15500;SDS011;7852;52.228;5.990;2023-03-23T01:18:23;1.5;;;1.4;;
15500;SDS011;7852;52.228;5.990;2023-03-23T01:19:23;2.7;;;1.5;;
15500;SDS011;7852;52.228;5.990;2023-03-23T01:20:23;3.8;;;2;;
15500;SDS011;7852;52.228;5.990;2023-03-23T01:21:23;3.1;;;1.9;;
15500;SDS011;7852;52.228;5.990;2023-03-23T01:22:23;3;;;1.6;;
15500;SDS011;7852;52.228;5.990;2023-03-23T01:23:23;3.4;;;2;;
15500;SDS011;7852;52.228;5.990;2023-03-23T01:24:23;4.4;;;2.3;;
15500;SDS011;7852;52.228;5.990;2023-03-23T01:25:23;2.2;;;1.7;;
15500;SDS011;7852;52.228;5.990;2023-03-23T01:26:24;1.4;;;1.1;;
15500;SDS011;7852;52.228;5.990;2023-03-23T01:27:23;1.8;;;1.1;;
15500;SDS011;7852;52.228;5.990;2023-03-23T01:28:23;2.3;;;1.8;;
15500;SDS011;7852;52.228;5.990;2023-03-23T01:29:23;5;;;1.8;;
15500;SDS011;7852;52.228;5.990;2023-03-23T01:30:23;2.1;;;0.9;;
15500;SDS011;7852;52.228;5.990;2023-03-23T01:31:24;4.3;;;1.7;;
15500;SDS011;7852;52.228;5.990;2023-03-23T01:32:23;5.2;;;1.4;;
15500;SDS011;7852;52.228;5.990;2023-03-23T01:33:23;2.7;;;1.8;;
15500;SDS011;7852;52.228;5.990;2023-03-23T01:34:23;3.8;;;1.4;;
15500;SDS011;7852;52.228;5.990;2023-03-23T01:35:23;6.4;;;1.5;;
15500;SDS011;7852;52.228;5.990;2023-03-23T01:36:24;2.4;;;1.8;;
15500;SDS011;7852;52.228;5.990;2023-03-23T01:37:23;1.2;;;0.9;;
15500;SDS011;7852;52.228;5.990;2023-03-23T01:38:23;2.1;;;1.2;;
15500;SDS011;7852;52.228;5.990;2023-03-23T01:39:23;2.7;;;1.3;;
15500;SDS011;7852;52.228;5.990;2023-03-23T01:40:23;4.2;;;1.4;;
15500;SDS011;7852;52.228;5.990;2023-03-23T01:41:23;2.5;;;1.6;;
15500;SDS011;7852;52.228;5.990;2023-03-23T01:42:23;3.2;;;1.5;;
15500;SDS011;7852;52.228;5.990;2023-03-23T01:43:23;1.9;;;1.3;;
15500;SDS011;7852;52.228;5.990;2023-03-23T01:45:26;2.4;;;1.6;;
15500;SDS011;7852;52.228;5.990;2023-03-23T01:46:24;2;;;1.6;;
15500;SDS011;7852;52.228;5.990;2023-03-23T01:47:23;2;;;1.2;;
15500;SDS011;7852;52.228;5.990;2023-03-23T01:48:23;6.2;;;1.6;;
15500;SDS011;7852;52.228;5.990;2023-03-23T01:49:23;3;;;1.1;;
15500;SDS011;7852;52.228;5.990;2023-03-23T01:50:23;2.6;;;1.6;;
15500;SDS011;7852;52.228;5.990;2023-03-23T01:51:23;3.8;;;1.5;;
15500;SDS011;7852;52.228;5.990;2023-03-23T01:52:23;3.4;;;1.6;;
15500;SDS011;7852;52.228;5.990;2023-03-23T01:53:24;3.1;;;1.8;;
15500;SDS011;7852;52.228;5.990;2023-03-23T01:54:23;2.2;;;1.4;;
15500;SDS011;7852;52.228;5.990;2023-03-23T01:55:23;2.7;;;1.4;;
15500;SDS011;7852;52.228;5.990;2023-03-23T01:56:24;2.9;;;1.7;;
15500;SDS011;7852;52.228;5.990;2023-03-23T01:57:23;3.7;;;1.6;;
15500;SDS011;7852;52.228;5.990;2023-03-23T01:58:25;1.4;;;1;;
15500;SDS011;7852;52.228;5.990;2023-03-23T01:59:23;2.3;;;1.3;;
15500;SDS011;7852;52.228;5.990;2023-03-23T02:00:23;1.9;;;1.4;;
15500;SDS011;7852;52.228;5.990;2023-03-23T02:01:23;2.5;;;1.4;;
15500;SDS011;7852;52.228;5.990;2023-03-23T02:02:24;3.3;;;1.4;;
15500;SDS011;7852;52.228;5.990;2023-03-23T02:03:23;2.6;;;1.1;;
15500;SDS011;7852;52.228;5.990;2023-03-23T02:04:23;2.5;;;1.2;;
15500;SDS011;7852;52.228;5.990;2023-03-23T02:05:26;2.6;;;1.5;;
15500;SDS011;7852;52.228;5.990;2023-03-23T02:06:23;2.2;;;1.7;;
15500;SDS011;7852;52.228;5.990;2023-03-23T02:07:23;3.8;;;1.4;;
15500;SDS011;7852;52.228;5.990;2023-03-23T02:08:23;3.5;;;1.8;;
15500;SDS011;7852;52.228;5.990;2023-03-23T02:09:23;4.1;;;1.6;;
15500;SDS011;7852;52.228;5.990;2023-03-23T02:10:23;2;;;1.4;;
15500;SDS011;7852;52.228;5.990;2023-03-23T02:11:23;2.8;;;1.3;;
15500;SDS011;7852;52.228;5.990;2023-03-23T02:12:23;2.9;;;1.6;;
15500;SDS011;7852;52.228;5.990;2023-03-23T02:13:23;1.6;;;1.4;;
15500;SDS011;7852;52.228;5.990;2023-03-23T02:14:23;1;;;0.9;;
15500;SDS011;7852;52.228;5.990;2023-03-23T02:15:24;1.9;;;1.7;;
15500;SDS011;7852;52.228;5.990;2023-03-23T02:16:26;2.6;;;1.6;;
15500;SDS011;7852;52.228;5.990;2023-03-23T02:17:24;1.9;;;1.4;;
15500;SDS011;7852;52.228;5.990;2023-03-23T02:18:27;1.6;;;1.5;;
15500;SDS011;7852;52.228;5.990;2023-03-23T02:19:30;1.5;;;1.4;;
15500;SDS011;7852;52.228;5.990;2023-03-23T02:20:27;2.8;;;1.7;;
15500;SDS011;7852;52.228;5.990;2023-03-23T02:21:28;2.9;;;1.6;;
15500;SDS011;7852;52.228;5.990;2023-03-23T02:22:30;2.9;;;1;;
15500;SDS011;7852;52.228;5.990;2023-03-23T02:23:30;1.3;;;1.1;;
15500;SDS011;7852;52.228;5.990;2023-03-23T02:24:42;4.9;;;1.5;;
15500;SDS011;7852;52.228;5.990;2023-03-23T02:25:27;2.2;;;1.4;;
15500;SDS011;7852;52.228;5.990;2023-03-23T02:26:27;4.1;;;1.5;;
15500;SDS011;7852;52.228;5.990;2023-03-23T02:27:28;2.8;;;1.7;;
15500;SDS011;7852;52.228;5.990;2023-03-23T02:28:27;2.6;;;1.6;;
15500;SDS011;7852;52.228;5.990;2023-03-23T02:30:27;2;;;1.1;;
15500;SDS011;7852;52.228;5.990;2023-03-23T02:31:29;3.4;;;2.1;;
15500;SDS011;7852;52.228;5.990;2023-03-23T02:33:28;3;;;1.7;;
15500;SDS011;7852;52.228;5.990;2023-03-23T02:34:24;3.9;;;2;;
15500;SDS011;7852;52.228;5.990;2023-03-23T02:35:23;2.9;;;1.6;;
15500;SDS011;7852;52.228;5.990;2023-03-23T02:37:24;2.3;;;1.7;;
15500;SDS011;7852;52.228;5.990;2023-03-23T02:38:25;2.1;;;1.5;;
15500;SDS011;7852;52.228;5.990;2023-03-23T02:39:23;3.3;;;1.3;;
15500;SDS011;7852;52.228;5.990;2023-03-23T02:40:24;2.6;;;1.8;;
15500;SDS011;7852;52.228;5.990;2023-03-23T02:41:24;2.2;;;1.4;;
15500;SDS011;7852;52.228;5.990;2023-03-23T02:42:24;2.3;;;1.6;;
15500;SDS011;7852;52.228;5.990;2023-03-23T02:43:24;1.5;;;1.3;;
15500;SDS011;7852;52.228;5.990;2023-03-23T02:44:23;1.4;;;1.2;;
15500;SDS011;7852;52.228;5.990;2023-03-23T02:45:23;1.5;;;1.2;;
15500;SDS011;7852;52.228;5.990;2023-03-23T02:46:25;2.1;;;1.2;;
15500;SDS011;7852;52.228;5.990;2023-03-23T02:47:25;4;;;1.9;;
15500;SDS011;7852;52.228;5.990;2023-03-23T02:48:28;2.1;;;1.6;;
15500;SDS011;7852;52.228;5.990;2023-03-23T02:49:26;2.3;;;1.4;;
15500;SDS011;7852;52.228;5.990;2023-03-23T02:50:25;3.2;;;1.3;;
15500;SDS011;7852;52.228;5.990;2023-03-23T02:51:25;3.1;;;1.5;;
15500;SDS011;7852;52.228;5.990;2023-03-23T02:52:26;1.6;;;1.5;;
15500;SDS011;7852;52.228;5.990;2023-03-23T02:53:25;2.2;;;1.9;;
15500;SDS011;7852;52.228;5.990;2023-03-23T02:54:25;3.5;;;1.8;;
15500;SDS011;7852;52.228;5.990;2023-03-23T02:55:25;2.9;;;1.4;;
15500;SDS011;7852;52.228;5.990;2023-03-23T02:56:25;4.8;;;2.1;;
15500;SDS011;7852;52.228;5.990;2023-03-23T02:58:25;1.6;;;1.4;;
15500;SDS011;7852;52.228;5.990;2023-03-23T02:59:25;3.6;;;1.8;;
15500;SDS011;7852;52.228;5.990;2023-03-23T03:00:25;1.7;;;1.4;;
15500;SDS011;7852;52.228;5.990;2023-03-23T03:02:26;2.3;;;1.7;;
15500;SDS011;7852;52.228;5.990;2023-03-23T03:03:27;3;;;2.2;;
15500;SDS011;7852;52.228;5.990;2023-03-23T03:04:26;4.2;;;1.7;;
15500;SDS011;7852;52.228;5.990;2023-03-23T03:05:27;1.9;;;1.4;;
15500;SDS011;7852;52.228;5.990;2023-03-23T03:06:26;2;;;1.3;;
15500;SDS011;7852;52.228;5.990;2023-03-23T03:07:29;2.1;;;1.6;;
15500;SDS011;7852;52.228;5.990;2023-03-23T03:08:26;2.7;;;1.9;;
15500;SDS011;7852;52.228;5.990;2023-03-23T03:09:26;3.1;;;1.8;;
15500;SDS011;7852;52.228;5.990;2023-03-23T03:10:26;2.4;;;1.6;;
15500;SDS011;7852;52.228;5.990;2023-03-23T03:11:25;3.9;;;1.8;;
15500;SDS011;7852;52.228;5.990;2023-03-23T03:12:28;4.5;;;2;;
15500;SDS011;7852;52.228;5.990;2023-03-23T03:13:29;2.4;;;1.5;;
15500;SDS011;7852;52.228;5.990;2023-03-23T03:14:26;2;;;1.3;;
15500;SDS011;7852;52.228;5.990;2023-03-23T03:15:26;2.5;;;1.8;;
15500;SDS011;7852;52.228;5.990;2023-03-23T03:16:27;4.5;;;1.7;;
15500;SDS011;7852;52.228;5.990;2023-03-23T03:17:26;1.5;;;1.3;;
15500;SDS011;7852;52.228;5.990;2023-03-23T03:18:26;3.2;;;2.1;;
15500;SDS011;7852;52.228;5.990;2023-03-23T03:19:26;3.5;;;1.2;;
15500;SDS011;7852;52.228;5.990;2023-03-23T03:20:25;4.4;;;1.7;;
15500;SDS011;7852;52.228;5.990;2023-03-23T03:21:26;3.3;;;1.9;;
15500;SDS011;7852;52.228;5.990;2023-03-23T03:22:25;1.5;;;1.4;;
15500;SDS011;7852;52.228;5.990;2023-03-23T03:23:25;1.8;;;1.5;;
15500;SDS011;7852;52.228;5.990;2023-03-23T03:24:26;2.3;;;1.9;;
15500;SDS011;7852;52.228;5.990;2023-03-23T03:25:25;3.9;;;2;;
15500;SDS011;7852;52.228;5.990;2023-03-23T03:26:25;3.1;;;1.9;;
15500;SDS011;7852;52.228;5.990;2023-03-23T03:27:25;3;;;1.6;;
15500;SDS011;7852;52.228;5.990;2023-03-23T03:28:25;1.7;;;1.3;;
15500;SDS011;7852;52.228;5.990;2023-03-23T03:29:27;2.1;;;1.6;;
15500;SDS011;7852;52.228;5.990;2023-03-23T03:30:26;1.8;;;1.5;;
15500;SDS011;7852;52.228;5.990;2023-03-23T03:31:26;3.6;;;2;;
15500;SDS011;7852;52.228;5.990;2023-03-23T03:32:30;2.2;;;1.9;;
15500;SDS011;7852;52.228;5.990;2023-03-23T03:33:25;2.4;;;1.8;;
15500;SDS011;7852;52.228;5.990;2023-03-23T03:34:25;5.4;;;2;;
15500;SDS011;7852;52.228;5.990;2023-03-23T03:35:26;4;;;2.1;;
15500;SDS011;7852;52.228;5.990;2023-03-23T03:36:26;2.3;;;1.5;;
15500;SDS011;7852;52.228;5.990;2023-03-23T03:37:25;4.3;;;1.9;;
15500;SDS011;7852;52.228;5.990;2023-03-23T03:38:26;2.9;;;2;;
15500;SDS011;7852;52.228;5.990;2023-03-23T03:41:26;2.2;;;1.6;;
15500;SDS011;7852;52.228;5.990;2023-03-23T03:42:25;5.9;;;1.7;;
15500;SDS011;7852;52.228;5.990;2023-03-23T03:53:25;2.5;;;1.8;;
15500;SDS011;7852;52.228;5.990;2023-03-23T03:54:25;2.6;;;1.6;;
15500;SDS011;7852;52.228;5.990;2023-03-23T03:55:25;2.2;;;1.7;;
15500;SDS011;7852;52.228;5.990;2023-03-23T03:56:25;4.3;;;1.8;;
15500;SDS011;7852;52.228;5.990;2023-03-23T03:57:25;3.9;;;1.8;;
15500;SDS011;7852;52.228;5.990;2023-03-23T03:58:25;5.1;;;2;;
15500;SDS011;7852;52.228;5.990;2023-03-23T03:59:25;2;;;1.6;;
15500;SDS011;7852;52.228;5.990;2023-03-23T04:00:25;1.7;;;1.3;;
15500;SDS011;7852;52.228;5.990;2023-03-23T04:01:25;1.6;;;1.4;;
15500;SDS011;7852;52.228;5.990;2023-03-23T04:05:26;3.5;;;1.6;;
15500;SDS011;7852;52.228;5.990;2023-03-23T04:06:25;6.2;;;1.8;;
15500;SDS011;7852;52.228;5.990;2023-03-23T04:07:25;2.2;;;1.7;;
15500;SDS011;7852;52.228;5.990;2023-03-23T04:08:25;2.6;;;1.8;;
15500;SDS011;7852;52.228;5.990;2023-03-23T04:09:25;1.9;;;1.3;;
15500;SDS011;7852;52.228;5.990;2023-03-23T04:11:25;2.2;;;1.2;;
15500;SDS011;7852;52.228;5.990;2023-03-23T04:13:25;2.8;;;1.1;;
15500;SDS011;7852;52.228;5.990;2023-03-23T04:15:25;6.9;;;1.7;;
15500;SDS011;7852;52.228;5.990;2023-03-23T04:16:25;1.5;;;1.4;;
15500;SDS011;7852;52.228;5.990;2023-03-23T04:17:25;2.2;;;1.7;;
15500;SDS011;7852;52.228;5.990;2023-03-23T04:18:26;3.9;;;1.5;;
15500;SDS011;7852;52.228;5.990;2023-03-23T04:19:25;3.4;;;1.6;;
15500;SDS011;7852;52.228;5.990;2023-03-23T04:20:25;2.2;;;1.6;;
15500;SDS011;7852;52.228;5.990;2023-03-23T04:21:25;3.6;;;1.8;;
15500;SDS011;7852;52.228;5.990;2023-03-23T04:22:26;3.6;;;1.5;;
15500;SDS011;7852;52.228;5.990;2023-03-23T04:23:28;4.1;;;1.4;;
15500;SDS011;7852;52.228;5.990;2023-03-23T04:24:25;2.4;;;1.5;;
15500;SDS011;7852;52.228;5.990;2023-03-23T04:25:25;3.3;;;1.3;;
15500;SDS011;7852;52.228;5.990;2023-03-23T04:26:26;3.8;;;1.3;;
15500;SDS011;7852;52.228;5.990;2023-03-23T04:27:26;2;;;1.2;;
15500;SDS011;7852;52.228;5.990;2023-03-23T04:28:25;2.9;;;1.4;;
15500;SDS011;7852;52.228;5.990;2023-03-23T04:29:26;1.9;;;1.5;;
15500;SDS011;7852;52.228;5.990;2023-03-23T04:30:25;1.3;;;1.2;;
15500;SDS011;7852;52.228;5.990;2023-03-23T04:31:25;3.5;;;1.6;;
15500;SDS011;7852;52.228;5.990;2023-03-23T04:32:25;1.2;;;1.1;;
15500;SDS011;7852;52.228;5.990;2023-03-23T04:33:26;3.5;;;1.8;;
15500;SDS011;7852;52.228;5.990;2023-03-23T04:34:25;4.4;;;2;;
15500;SDS011;7852;52.228;5.990;2023-03-23T04:35:26;3.6;;;1.4;;
15500;SDS011;7852;52.228;5.990;2023-03-23T04:36:25;1.9;;;1.1;;
15500;SDS011;7852;52.228;5.990;2023-03-23T04:37:26;2.3;;;1.5;;
15500;SDS011;7852;52.228;5.990;2023-03-23T04:38:26;3;;;1.6;;
15500;SDS011;7852;52.228;5.990;2023-03-23T04:39:25;2;;;1.5;;
15500;SDS011;7852;52.228;5.990;2023-03-23T04:40:25;2.2;;;1.5;;
15500;SDS011;7852;52.228;5.990;2023-03-23T04:41:25;1.5;;;1.2;;
15500;SDS011;7852;52.228;5.990;2023-03-23T04:42:26;3;;;1.7;;
15500;SDS011;7852;52.228;5.990;2023-03-23T04:43:25;1.3;;;1;;
15500;SDS011;7852;52.228;5.990;2023-03-23T04:44:25;2.1;;;1.4;;
15500;SDS011;7852;52.228;5.990;2023-03-23T04:45:25;1.2;;;1.1;;
15500;SDS011;7852;52.228;5.990;2023-03-23T04:46:25;3.5;;;1.5;;
15500;SDS011;7852;52.228;5.990;2023-03-23T04:47:26;3.1;;;1.5;;
15500;SDS011;7852;52.228;5.990;2023-03-23T04:48:26;3.4;;;1.4;;
15500;SDS011;7852;52.228;5.990;2023-03-23T04:49:25;3.1;;;1.5;;
15500;SDS011;7852;52.228;5.990;2023-03-23T04:50:26;1.9;;;1.4;;
15500;SDS011;7852;52.228;5.990;2023-03-23T04:51:25;1.5;;;1.3;;
15500;SDS011;7852;52.228;5.990;2023-03-23T04:52:25;4.4;;;2.2;;
15500;SDS011;7852;52.228;5.990;2023-03-23T04:53:25;3.3;;;1.4;;
15500;SDS011;7852;52.228;5.990;2023-03-23T04:54:25;2.1;;;1.3;;
15500;SDS011;7852;52.228;5.990;2023-03-23T04:55:25;4.8;;;2;;
15500;SDS011;7852;52.228;5.990;2023-03-23T04:57:25;2.3;;;1.1;;
15500;SDS011;7852;52.228;5.990;2023-03-23T04:58:25;1.9;;;1.2;;
15500;SDS011;7852;52.228;5.990;2023-03-23T04:59:25;1.3;;;1.2;;
15500;SDS011;7852;52.228;5.990;2023-03-23T05:00:26;2.6;;;1.4;;
15500;SDS011;7852;52.228;5.990;2023-03-23T05:01:25;2.7;;;1.4;;
15500;SDS011;7852;52.228;5.990;2023-03-23T05:02:25;2.6;;;1.6;;
15500;SDS011;7852;52.228;5.990;2023-03-23T05:03:25;2.4;;;1.3;;
15500;SDS011;7852;52.228;5.990;2023-03-23T05:04:25;3.4;;;1.3;;
15500;SDS011;7852;52.228;5.990;2023-03-23T05:05:26;2.8;;;1.5;;
15500;SDS011;7852;52.228;5.990;2023-03-23T05:06:25;2.2;;;1.3;;
15500;SDS011;7852;52.228;5.990;2023-03-23T05:07:25;0.8;;;0.7;;
15500;SDS011;7852;52.228;5.990;2023-03-23T05:08:25;1.9;;;1.4;;
15500;SDS011;7852;52.228;5.990;2023-03-23T05:09:25;1.9;;;1.1;;
15500;SDS011;7852;52.228;5.990;2023-03-23T05:10:25;3.9;;;1.4;;
15500;SDS011;7852;52.228;5.990;2023-03-23T05:11:25;3;;;1.4;;
15500;SDS011;7852;52.228;5.990;2023-03-23T05:12:25;3.3;;;1.4;;
15500;SDS011;7852;52.228;5.990;2023-03-23T05:13:27;2;;;1.1;;
15500;SDS011;7852;52.228;5.990;2023-03-23T05:14:25;6;;;1.3;;
15500;SDS011;7852;52.228;5.990;2023-03-23T05:15:25;1;;;0.8;;
15500;SDS011;7852;52.228;5.990;2023-03-23T05:16:25;3.5;;;1.1;;
15500;SDS011;7852;52.228;5.990;2023-03-23T05:17:26;1.3;;;1.2;;
15500;SDS011;7852;52.228;5.990;2023-03-23T05:18:25;1.6;;;1.2;;
15500;SDS011;7852;52.228;5.990;2023-03-23T05:19:26;2.1;;;1.1;;
15500;SDS011;7852;52.228;5.990;2023-03-23T05:20:25;2;;;1.1;;
15500;SDS011;7852;52.228;5.990;2023-03-23T05:21:25;1.7;;;0.7;;
15500;SDS011;7852;52.228;5.990;2023-03-23T05:22:26;5.5;;;1.5;;
15500;SDS011;7852;52.228;5.990;2023-03-23T05:23:25;2.7;;;1.5;;
15500;SDS011;7852;52.228;5.990;2023-03-23T05:24:25;3.3;;;1.2;;
15500;SDS011;7852;52.228;5.990;2023-03-23T05:25:25;1.7;;;0.9;;
15500;SDS011;7852;52.228;5.990;2023-03-23T05:26:26;2.4;;;1;;
15500;SDS011;7852;52.228;5.990;2023-03-23T05:27:25;3.6;;;1.2;;
15500;SDS011;7852;52.228;5.990;2023-03-23T05:28:25;2.1;;;1;;
15500;SDS011;7852;52.228;5.990;2023-03-23T05:29:26;1.8;;;1;;
15500;SDS011;7852;52.228;5.990;2023-03-23T05:30:25;3.2;;;0.8;;
15500;SDS011;7852;52.228;5.990;2023-03-23T05:31:25;5.5;;;1.2;;
15500;SDS011;7852;52.228;5.990;2023-03-23T05:32:26;4;;;1.3;;
15500;SDS011;7852;52.228;5.990;2023-03-23T05:33:25;2.1;;;0.7;;
15500;SDS011;7852;52.228;5.990;2023-03-23T05:34:25;1.3;;;0.8;;
15500;SDS011;7852;52.228;5.990;2023-03-23T05:35:25;3.6;;;1.2;;
15500;SDS011;7852;52.228;5.990;2023-03-23T05:36:25;14.6;;;0.9;;
15500;SDS011;7852;52.228;5.990;2023-03-23T05:37:26;1.8;;;1.1;;
15500;SDS011;7852;52.228;5.990;2023-03-23T05:38:25;2.6;;;1;;
15500;SDS011;7852;52.228;5.990;2023-03-23T05:39:26;5.1;;;0.9;;
15500;SDS011;7852;52.228;5.990;2023-03-23T05:40:25;1.6;;;0.9;;
15500;SDS011;7852;52.228;5.990;2023-03-23T05:41:25;3.4;;;1.5;;
15500;SDS011;7852;52.228;5.990;2023-03-23T05:42:25;3.9;;;1.1;;
15500;SDS011;7852;52.228;5.990;2023-03-23T05:44:25;4.1;;;1.2;;
15500;SDS011;7852;52.228;5.990;2023-03-23T05:45:25;3.1;;;1;;
15500;SDS011;7852;52.228;5.990;2023-03-23T05:46:25;4.3;;;0.7;;
15500;SDS011;7852;52.228;5.990;2023-03-23T05:47:26;2.2;;;1;;
15500;SDS011;7852;52.228;5.990;2023-03-23T05:48:25;2.9;;;1.1;;
15500;SDS011;7852;52.228;5.990;2023-03-23T05:49:25;2.4;;;1.2;;
15500;SDS011;7852;52.228;5.990;2023-03-23T05:50:25;3;;;1.3;;
15500;SDS011;7852;52.228;5.990;2023-03-23T05:51:25;2.7;;;0.7;;
15500;SDS011;7852;52.228;5.990;2023-03-23T05:52:25;2.4;;;0.8;;
15500;SDS011;7852;52.228;5.990;2023-03-23T05:53:25;3.1;;;0.9;;
15500;SDS011;7852;52.228;5.990;2023-03-23T05:54:25;0.4;;;0.4;;
15500;SDS011;7852;52.228;5.990;2023-03-23T05:55:25;2.3;;;1.2;;
15500;SDS011;7852;52.228;5.990;2023-03-23T05:56:25;3.2;;;1.1;;
15500;SDS011;7852;52.228;5.990;2023-03-23T05:57:34;2.8;;;0.9;;
15500;SDS011;7852;52.228;5.990;2023-03-23T05:58:25;3.3;;;1;;
15500;SDS011;7852;52.228;5.990;2023-03-23T05:59:25;3.9;;;1;;
15500;SDS011;7852;52.228;5.990;2023-03-23T06:00:25;2.2;;;0.9;;
15500;SDS011;7852;52.228;5.990;2023-03-23T06:01:25;3.4;;;1.3;;
15500;SDS011;7852;52.228;5.990;2023-03-23T06:02:25;2.3;;;1.1;;
15500;SDS011;7852;52.228;5.990;2023-03-23T06:03:26;1.2;;;0.7;;
15500;SDS011;7852;52.228;5.990;2023-03-23T06:04:27;3.2;;;1;;
15500;SDS011;7852;52.228;5.990;2023-03-23T06:05:27;1.3;;;0.7;;
15500;SDS011;7852;52.228;5.990;2023-03-23T06:06:28;1.3;;;0.7;;
15500;SDS011;7852;52.228;5.990;2023-03-23T06:07:27;2.3;;;1;;
15500;SDS011;7852;52.228;5.990;2023-03-23T06:08:29;2.3;;;0.9;;
15500;SDS011;7852;52.228;5.990;2023-03-23T06:09:29;0.6;;;0.6;;
15500;SDS011;7852;52.228;5.990;2023-03-23T06:10:27;0.9;;;0.8;;
15500;SDS011;7852;52.228;5.990;2023-03-23T06:11:27;1.6;;;0.6;;
15500;SDS011;7852;52.228;5.990;2023-03-23T06:12:27;1.2;;;0.6;;
15500;SDS011;7852;52.228;5.990;2023-03-23T06:13:27;0.3;;;0.3;;
15500;SDS011;7852;52.228;5.990;2023-03-23T06:14:29;1.3;;;0.9;;
15500;SDS011;7852;52.228;5.990;2023-03-23T06:15:27;0.9;;;0.6;;
15500;SDS011;7852;52.228;5.990;2023-03-23T06:16:27;2.8;;;1.2;;
15500;SDS011;7852;52.228;5.990;2023-03-23T06:17:27;1.6;;;1.3;;
15500;SDS011;7852;52.228;5.990;2023-03-23T06:18:27;2.1;;;2;;
15500;SDS011;7852;52.228;5.990;2023-03-23T06:19:27;2.7;;;2.1;;
15500;SDS011;7852;52.228;5.990;2023-03-23T06:20:27;2.3;;;2.1;;
15500;SDS011;7852;52.228;5.990;2023-03-23T06:21:27;1.6;;;1.6;;
15500;SDS011;7852;52.228;5.990;2023-03-23T06:22:33;2.9;;;2.6;;
15500;SDS011;7852;52.228;5.990;2023-03-23T06:23:27;3.2;;;2.3;;
15500;SDS011;7852;52.228;5.990;2023-03-23T06:24:27;3.2;;;2.7;;
15500;SDS011;7852;52.228;5.990;2023-03-23T06:25:27;2.5;;;2.3;;
15500;SDS011;7852;52.228;5.990;2023-03-23T06:26:30;3.2;;;2.9;;
15500;SDS011;7852;52.228;5.990;2023-03-23T06:27:27;2.9;;;2.7;;
15500;SDS011;7852;52.228;5.990;2023-03-23T06:28:27;5.9;;;2.7;;
15500;SDS011;7852;52.228;5.990;2023-03-23T06:29:27;3;;;2.8;;
15500;SDS011;7852;52.228;5.990;2023-03-23T06:30:27;6.9;;;3.3;;
15500;SDS011;7852;52.228;5.990;2023-03-23T06:31:27;2.8;;;2.6;;
15500;SDS011;7852;52.228;5.990;2023-03-23T06:32:28;3.3;;;3.1;;
15500;SDS011;7852;52.228;5.990;2023-03-23T06:33:27;3.2;;;2.9;;
15500;SDS011;7852;52.228;5.990;2023-03-23T06:34:27;2.7;;;2.6;;
15500;SDS011;7852;52.228;5.990;2023-03-23T06:35:27;2.9;;;2.7;;
15500;SDS011;7852;52.228;5.990;2023-03-23T06:36:27;2.4;;;2.3;;
15500;SDS011;7852;52.228;5.990;2023-03-23T06:37:27;4.5;;;2.8;;
15500;SDS011;7852;52.228;5.990;2023-03-23T06:38:27;3;;;2.7;;
15500;SDS011;7852;52.228;5.990;2023-03-23T06:39:28;6.6;;;2.5;;
15500;SDS011;7852;52.228;5.990;2023-03-23T06:40:28;2.7;;;2.4;;
15500;SDS011;7852;52.228;5.990;2023-03-23T06:41:27;3.1;;;2.7;;
15500;SDS011;7852;52.228;5.990;2023-03-23T06:42:29;5.5;;;2.5;;
15500;SDS011;7852;52.228;5.990;2023-03-23T06:43:27;2.2;;;2;;
15500;SDS011;7852;52.228;5.990;2023-03-23T06:44:30;3.4;;;2.4;;
15500;SDS011;7852;52.228;5.990;2023-03-23T06:45:30;2.8;;;1.9;;
15500;SDS011;7852;52.228;5.990;2023-03-23T06:46:30;2.2;;;2;;
15500;SDS011;7852;52.228;5.990;2023-03-23T06:47:30;5.6;;;2.6;;
15500;SDS011;7852;52.228;5.990;2023-03-23T06:48:30;3.7;;;3.2;;
15500;SDS011;7852;52.228;5.990;2023-03-23T06:49:31;2.5;;;2.3;;
15500;SDS011;7852;52.228;5.990;2023-03-23T06:50:30;2.3;;;2.2;;
15500;SDS011;7852;52.228;5.990;2023-03-23T06:51:30;2.4;;;2.3;;
15500;SDS011;7852;52.228;5.990;2023-03-23T06:52:30;6.7;;;2.8;;
15500;SDS011;7852;52.228;5.990;2023-03-23T06:53:30;4.3;;;3;;
15500;SDS011;7852;52.228;5.990;2023-03-23T06:54:30;4.3;;;2.6;;
15500;SDS011;7852;52.228;5.990;2023-03-23T06:55:30;4.3;;;2.3;;